WetterOnline ( https://www.wetteronline.de )

Wetter aktuell Dülmen

Aktuelles Wetter: Ahaus (46m)

6-stündlich | Neueste Meldungen
Ortszeit Temperatur Wetter
Do, 29.02. 19:00 10.3° C leichter Regen
Do, 29.02. 13:00 9.9° C bedeckt
Do, 29.02. 7:00 5.6° C bedeckt
Do, 29.02. 1:00 5.5° C leicht bewölkt
Mi, 28.02. 19:00 5.8° C bedeckt
Mi, 28.02. 13:00 5.7° C bewölkt
Mi, 28.02. 7:00 1.4° C Nebel
Mi, 28.02. 1:00 1.1° C Nebel
Ortszeit Temperatur Wetter
Do, 29.02. 20:00 9.9° C bedeckt
Do, 29.02. 19:50 9.9° C bedeckt
Do, 29.02. 19:40 10.1° C bedeckt
Do, 29.02. 19:30 10.1° C bedeckt
Do, 29.02. 19:20 10.1° C bedeckt
Do, 29.02. 19:10 10.1° C bedeckt
Do, 29.02. 19:00 10.3° C leichter Regen
Do, 29.02. 18:30 10.2° C leichter Regen
Do, 29.02. 18:00 10.4° C bedeckt
Do, 29.02. 17:30 10.6° C bedeckt
Do, 29.02. 17:00 10.8° C bedeckt
Ortszeit Relative Feuchte Sichtweite
Do, 29.02. 19:00 61% 55 km
Do, 29.02. 13:00 73% 45 km
Do, 29.02. 7:00 72% 30 km
Do, 29.02. 1:00 78% 14 km
Mi, 28.02. 19:00 83% 11 km
Mi, 28.02. 13:00 86% 7 km
Mi, 28.02. 7:00 100% 0.2 km
Mi, 28.02. 1:00 100% 100 m
Ortszeit Relative Feuchte Sichtweite
Do, 29.02. 20:00 60% 55 km
Do, 29.02. 19:50 60% -
Do, 29.02. 19:40 60% -
Do, 29.02. 19:30 61% 60 km
Do, 29.02. 19:20 61% -
Do, 29.02. 19:10 61% -
Do, 29.02. 19:00 61% 55 km
Do, 29.02. 18:30 64% 45 km
Do, 29.02. 18:00 63% 50 km
Do, 29.02. 17:30 61% 60 km
Do, 29.02. 17:00 61% 55 km
Ortszeit Niederschlagsmenge Niederschlagsart
Do, 29.02. 19:00 0.1 l/m2 in 12 Std. Regen
Do, 29.02. 13:00 0.1 l/m2 in 6 Std. Regen
Do, 29.02. 7:00 0.0 l/m2 in 12 Std. -
Do, 29.02. 1:00 0.0 l/m2 in 6 Std. -
Mi, 28.02. 19:00 0.1 l/m2 in 12 Std. -
Mi, 28.02. 13:00 0.1 l/m2 in 6 Std. Regen
Mi, 28.02. 7:00 0.0 l/m2 in 12 Std. -
Mi, 28.02. 1:00 0.0 l/m2 in 6 Std. -
Ortszeit Niederschlagsmenge Niederschlagsart
Do, 29.02. 20:00 <0.05 l/m2 in 1 Std. Regen
Do, 29.02. 19:50 keine Meldung -
Do, 29.02. 19:40 keine Meldung -
Do, 29.02. 19:30 <0.05 l/m2 in 30 Min Schneeregen
Do, 29.02. 19:20 keine Meldung -
Do, 29.02. 19:10 keine Meldung -
Do, 29.02. 19:00 <0.05 l/m2 in 1 Std. Regen
Do, 29.02. 18:30 <0.05 l/m2 in 30 Min -
Do, 29.02. 18:00 0.0 l/m2 in 1 Std. -
Do, 29.02. 17:30 0.0 l/m2 in 30 Min -
Do, 29.02. 17:00 0.0 l/m2 in 1 Std. -
Ortszeit Stärke Spitze Richtung
km/h Bft. km/h Grad Sektor
Do, 29.02. 19:00 14 3 36 150° SO
Do, 29.02. 13:00 20 4 33 190° S
Do, 29.02. 7:00 18 3 32 190° S
Do, 29.02. 1:00 11 2 22 170° S
Mi, 28.02. 19:00 7 2 25 170° S
Mi, 28.02. 13:00 13 3 20 200° S
Mi, 28.02. 7:00 9 2 15 190° S
Mi, 28.02. 1:00 4 1 14 220° SW
Ortszeit Stärke Spitze Richtung
km/h Bft. km/h Grad Sektor
Do, 29.02. 20:00 13 3 22 150° SO
Do, 29.02. 19:50 13 3 - 150° SO
Do, 29.02. 19:40 14 3 - 150° SO
Do, 29.02. 19:30 14 3 22 150° SO
Do, 29.02. 19:20 14 3 - 150° SO
Do, 29.02. 19:10 13 3 - 150° SO
Do, 29.02. 19:00 14 3 22 150° SO
Do, 29.02. 18:30 13 3 20 150° SO
Do, 29.02. 18:00 13 3 28 160° S
Do, 29.02. 17:30 15 3 28 170° S
Do, 29.02. 17:00 20 4 35 160° S
Ortszeit Untergrenze Bedeckung Gattung
total tief tief mittel hoch
Do, 29.02. 19:00 840 m 7/8 7/8 - - -
Do, 29.02. 13:00 630 m 8/8 8/8 - - -
Do, 29.02. 7:00 930 m 8/8 8/8 - - -
Do, 29.02. 1:00 1080 m 5/8 1/8 - - -
Mi, 28.02. 19:00 3900 m 8/8 8/8 - - -
Mi, 28.02. 13:00 300 m 7/8 7/8 - - -
Mi, 28.02. 7:00 <30 m 8/8 0/8 - - -
Mi, 28.02. 1:00 <30 m 8/8 0/8 - - -
Ortszeit Bedeckungsgrad in Achtel und Wolkenuntergrenze
Do, 29.02. 20:00 7(960m) 8(1500m) 8(3000m)
Do, 29.02. 19:50 7(960m) 8(1500m) 8(3000m)
Do, 29.02. 19:40 8
Do, 29.02. 19:30 7(1020m) 8(1470m) 8(2700m)
Do, 29.02. 19:20 7(1020m) 8(1470m) 8(2700m)
Do, 29.02. 19:10 8
Do, 29.02. 19:00 7(840m)
Do, 29.02. 18:30 3(750m) 8(1260m) 8(1500m)
Do, 29.02. 18:00 8(750m)
Do, 29.02. 17:30 8(750m)
Do, 29.02. 17:00 8(750m)
Ortszeit Luftdruck NN (hPa) Tendenz (hPa in 3 Std.)
Do, 29.02. 19:00 1006 - 1,6
Do, 29.02. 13:00 1010 - 1,8
Do, 29.02. 7:00 1013 - 1,8
Do, 29.02. 1:00 1017 - 1,5
Mi, 28.02. 19:00 1020 - 1,2
Mi, 28.02. 13:00 1022 - 0,2
Mi, 28.02. 7:00 1021 + 0,5
Mi, 28.02. 1:00 1020 0,0
Ortszeit Luftdruck NN (hPa) Tendenz (hPa in 3 Std.)
Do, 29.02. 20:00 1006 - 1,6
Do, 29.02. 19:50 1006 keine Meldung
Do, 29.02. 19:40 1006 keine Meldung
Do, 29.02. 19:30 1006 - 1,6
Do, 29.02. 19:20 1006 keine Meldung
Do, 29.02. 19:10 1006 keine Meldung
Do, 29.02. 19:00 1006 - 1,6
Do, 29.02. 18:30 1006 - 2,0
Do, 29.02. 18:00 1007 - 2,1
Do, 29.02. 17:30 1007 - 2,4
Do, 29.02. 17:00 1007 - 2,5
Ortszeit Schneehöhe (cm)
Do, 29.02. 19:00 0
Do, 29.02. 13:00 0
Do, 29.02. 7:00 0
Do, 29.02. 1:00 0
Mi, 28.02. 19:00 0
Mi, 28.02. 13:00 0
Mi, 28.02. 7:00 0
Mi, 28.02. 1:00 0
Ortszeit Schneehöhe (cm)
Do, 29.02. 20:00 0
Do, 29.02. 19:50 0
Do, 29.02. 19:40 -
Do, 29.02. 19:30 0
Do, 29.02. 19:20 0
Do, 29.02. 19:10 -
Do, 29.02. 19:00 0
Do, 29.02. 18:30 0
Do, 29.02. 18:00 0
Do, 29.02. 17:30 0
Do, 29.02. 17:00 0
Link zu dieser Seite / Seite empfehlen

Das Wetter in ...